sensor_id;sensor_type;location;lat;lon;timestamp;P1;durP1;ratioP1;P2;durP2;ratioP2
9436;SDS011;4757;59.334;18.034;2023-03-16T00:01:12;5.90;;;2.10;;
9436;SDS011;4757;59.334;18.034;2023-03-16T00:03:39;11.07;;;1.87;;
9436;SDS011;4757;59.334;18.034;2023-03-16T00:06:06;4.43;;;1.17;;
9436;SDS011;4757;59.334;18.034;2023-03-16T00:08:33;6.50;;;1.60;;
9436;SDS011;4757;59.334;18.034;2023-03-16T00:11:01;3.67;;;1.23;;
9436;SDS011;4757;59.334;18.034;2023-03-16T00:13:28;6.27;;;1.70;;
9436;SDS011;4757;59.334;18.034;2023-03-16T00:15:57;4.03;;;0.97;;
9436;SDS011;4757;59.334;18.034;2023-03-16T00:18:27;5.50;;;1.07;;
9436;SDS011;4757;59.334;18.034;2023-03-16T00:20:58;2.23;;;1.10;;
9436;SDS011;4757;59.334;18.034;2023-03-16T00:23:30;3.93;;;1.43;;
9436;SDS011;4757;59.334;18.034;2023-03-16T00:26:02;2.47;;;1.13;;
9436;SDS011;4757;59.334;18.034;2023-03-16T00:28:32;6.87;;;2.23;;
9436;SDS011;4757;59.334;18.034;2023-03-16T00:31:04;3.40;;;1.43;;
9436;SDS011;4757;59.334;18.034;2023-03-16T00:33:33;7.00;;;1.30;;
9436;SDS011;4757;59.334;18.034;2023-03-16T00:36:01;5.77;;;1.20;;
9436;SDS011;4757;59.334;18.034;2023-03-16T00:38:33;3.57;;;1.27;;
9436;SDS011;4757;59.334;18.034;2023-03-16T00:41:02;2.53;;;1.13;;
9436;SDS011;4757;59.334;18.034;2023-03-16T00:43:31;1.93;;;1.00;;
9436;SDS011;4757;59.334;18.034;2023-03-16T00:46:07;1.50;;;0.90;;
9436;SDS011;4757;59.334;18.034;2023-03-16T00:48:36;3.20;;;1.37;;
9436;SDS011;4757;59.334;18.034;2023-03-16T00:51:06;7.77;;;2.90;;
9436;SDS011;4757;59.334;18.034;2023-03-16T00:53:39;8.40;;;2.30;;
9436;SDS011;4757;59.334;18.034;2023-03-16T00:56:08;4.33;;;1.03;;
9436;SDS011;4757;59.334;18.034;2023-03-16T00:58:36;9.90;;;5.63;;
9436;SDS011;4757;59.334;18.034;2023-03-16T01:01:05;2.57;;;1.57;;
9436;SDS011;4757;59.334;18.034;2023-03-16T01:03:35;3.50;;;1.30;;
9436;SDS011;4757;59.334;18.034;2023-03-16T01:06:09;6.57;;;2.03;;
9436;SDS011;4757;59.334;18.034;2023-03-16T01:08:39;3.53;;;1.27;;
9436;SDS011;4757;59.334;18.034;2023-03-16T01:11:11;2.37;;;1.10;;
9436;SDS011;4757;59.334;18.034;2023-03-16T01:13:42;3.90;;;1.33;;
9436;SDS011;4757;59.334;18.034;2023-03-16T01:16:10;2.50;;;1.10;;
9436;SDS011;4757;59.334;18.034;2023-03-16T01:18:38;3.37;;;1.17;;
9436;SDS011;4757;59.334;18.034;2023-03-16T01:21:06;3.30;;;1.23;;
9436;SDS011;4757;59.334;18.034;2023-03-16T01:23:35;1.43;;;0.97;;
9436;SDS011;4757;59.334;18.034;2023-03-16T01:26:03;1.53;;;1.17;;
9436;SDS011;4757;59.334;18.034;2023-03-16T01:28:31;3.80;;;0.93;;
9436;SDS011;4757;59.334;18.034;2023-03-16T01:31:04;2.67;;;0.90;;
9436;SDS011;4757;59.334;18.034;2023-03-16T01:33:35;2.53;;;0.93;;
9436;SDS011;4757;59.334;18.034;2023-03-16T01:36:12;3.33;;;1.07;;
9436;SDS011;4757;59.334;18.034;2023-03-16T01:38:41;3.77;;;1.37;;
9436;SDS011;4757;59.334;18.034;2023-03-16T01:41:09;4.97;;;1.50;;
9436;SDS011;4757;59.334;18.034;2023-03-16T01:43:38;1.33;;;1.00;;
9436;SDS011;4757;59.334;18.034;2023-03-16T01:48:45;1.60;;;1.13;;
9436;SDS011;4757;59.334;18.034;2023-03-16T01:54:27;2.67;;;2.03;;
9436;SDS011;4757;59.334;18.034;2023-03-16T01:59:37;3.03;;;1.10;;
9436;SDS011;4757;59.334;18.034;2023-03-16T02:02:08;4.33;;;1.10;;
9436;SDS011;4757;59.334;18.034;2023-03-16T02:07:06;1.47;;;0.90;;
9436;SDS011;4757;59.334;18.034;2023-03-16T02:09:38;2.23;;;0.90;;
9436;SDS011;4757;59.334;18.034;2023-03-16T02:12:08;2.10;;;0.83;;
9436;SDS011;4757;59.334;18.034;2023-03-16T02:14:47;0.80;;;0.80;;
9436;SDS011;4757;59.334;18.034;2023-03-16T02:17:24;1.23;;;1.00;;
9436;SDS011;4757;59.334;18.034;2023-03-16T02:20:03;0.93;;;0.80;;
9436;SDS011;4757;59.334;18.034;2023-03-16T02:22:45;2.13;;;0.70;;
9436;SDS011;4757;59.334;18.034;2023-03-16T02:25:15;3.17;;;0.90;;
9436;SDS011;4757;59.334;18.034;2023-03-16T02:28:34;1.50;;;0.87;;
9436;SDS011;4757;59.334;18.034;2023-03-16T02:30:46;1.60;;;0.97;;
9436;SDS011;4757;59.334;18.034;2023-03-16T02:33:14;2.80;;;0.90;;
9436;SDS011;4757;59.334;18.034;2023-03-16T02:35:45;1.37;;;1.07;;
9436;SDS011;4757;59.334;18.034;2023-03-16T02:38:12;2.07;;;1.57;;
9436;SDS011;4757;59.334;18.034;2023-03-16T02:40:40;1.17;;;1.07;;
9436;SDS011;4757;59.334;18.034;2023-03-16T02:43:19;2.83;;;1.63;;
9436;SDS011;4757;59.334;18.034;2023-03-16T02:45:53;2.20;;;0.90;;
9436;SDS011;4757;59.334;18.034;2023-03-16T02:48:44;1.70;;;0.90;;
9436;SDS011;4757;59.334;18.034;2023-03-16T02:51:16;0.93;;;0.90;;
9436;SDS011;4757;59.334;18.034;2023-03-16T02:53:43;1.47;;;1.17;;
9436;SDS011;4757;59.334;18.034;2023-03-16T02:56:10;1.53;;;1.00;;
9436;SDS011;4757;59.334;18.034;2023-03-16T02:58:37;2.10;;;0.80;;
9436;SDS011;4757;59.334;18.034;2023-03-16T03:01:05;2.60;;;1.40;;
9436;SDS011;4757;59.334;18.034;2023-03-16T03:03:32;0.90;;;0.90;;
9436;SDS011;4757;59.334;18.034;2023-03-16T03:06:00;0.83;;;0.70;;
9436;SDS011;4757;59.334;18.034;2023-03-16T03:08:27;5.40;;;1.93;;
9436;SDS011;4757;59.334;18.034;2023-03-16T03:10:54;1.30;;;0.90;;
9436;SDS011;4757;59.334;18.034;2023-03-16T03:13:21;0.97;;;0.97;;
9436;SDS011;4757;59.334;18.034;2023-03-16T03:15:49;3.23;;;0.90;;
9436;SDS011;4757;59.334;18.034;2023-03-16T03:18:18;3.70;;;0.93;;
9436;SDS011;4757;59.334;18.034;2023-03-16T03:20:45;0.97;;;0.80;;
9436;SDS011;4757;59.334;18.034;2023-03-16T03:23:12;1.90;;;0.80;;
9436;SDS011;4757;59.334;18.034;2023-03-16T03:25:42;0.80;;;0.80;;
9436;SDS011;4757;59.334;18.034;2023-03-16T03:28:10;1.60;;;0.90;;
9436;SDS011;4757;59.334;18.034;2023-03-16T03:30:37;2.90;;;0.90;;
9436;SDS011;4757;59.334;18.034;2023-03-16T03:33:05;1.30;;;1.00;;
9436;SDS011;4757;59.334;18.034;2023-03-16T03:35:33;3.50;;;0.80;;
9436;SDS011;4757;59.334;18.034;2023-03-16T03:38:00;2.00;;;0.93;;
9436;SDS011;4757;59.334;18.034;2023-03-16T03:40:27;2.70;;;0.80;;
9436;SDS011;4757;59.334;18.034;2023-03-16T03:42:55;2.37;;;0.70;;
9436;SDS011;4757;59.334;18.034;2023-03-16T03:45:22;2.30;;;1.10;;
9436;SDS011;4757;59.334;18.034;2023-03-16T03:47:50;2.60;;;1.07;;
9436;SDS011;4757;59.334;18.034;2023-03-16T03:50:17;2.17;;;0.90;;
9436;SDS011;4757;59.334;18.034;2023-03-16T03:52:44;0.97;;;0.87;;
9436;SDS011;4757;59.334;18.034;2023-03-16T03:55:12;5.07;;;0.90;;
9436;SDS011;4757;59.334;18.034;2023-03-16T03:57:39;0.80;;;0.80;;
9436;SDS011;4757;59.334;18.034;2023-03-16T04:00:07;1.97;;;0.70;;
9436;SDS011;4757;59.334;18.034;2023-03-16T04:02:37;1.00;;;0.90;;
9436;SDS011;4757;59.334;18.034;2023-03-16T04:05:05;2.47;;;1.00;;
9436;SDS011;4757;59.334;18.034;2023-03-16T04:07:32;3.70;;;1.37;;
9436;SDS011;4757;59.334;18.034;2023-03-16T04:10:00;1.23;;;1.07;;
9436;SDS011;4757;59.334;18.034;2023-03-16T04:12:27;1.33;;;1.00;;
9436;SDS011;4757;59.334;18.034;2023-03-16T04:14:54;1.40;;;0.90;;
9436;SDS011;4757;59.334;18.034;2023-03-16T04:17:21;1.03;;;0.80;;
9436;SDS011;4757;59.334;18.034;2023-03-16T04:19:49;1.30;;;0.97;;
9436;SDS011;4757;59.334;18.034;2023-03-16T04:22:17;2.00;;;1.00;;
9436;SDS011;4757;59.334;18.034;2023-03-16T04:24:44;1.90;;;1.00;;
9436;SDS011;4757;59.334;18.034;2023-03-16T04:27:11;1.60;;;0.93;;
9436;SDS011;4757;59.334;18.034;2023-03-16T04:29:38;1.20;;;0.90;;
9436;SDS011;4757;59.334;18.034;2023-03-16T04:32:06;0.83;;;0.80;;
9436;SDS011;4757;59.334;18.034;2023-03-16T04:34:33;1.40;;;0.83;;
9436;SDS011;4757;59.334;18.034;2023-03-16T04:37:00;1.73;;;0.80;;
9436;SDS011;4757;59.334;18.034;2023-03-16T04:39:27;1.70;;;0.70;;
9436;SDS011;4757;59.334;18.034;2023-03-16T04:41:55;1.20;;;0.73;;
9436;SDS011;4757;59.334;18.034;2023-03-16T04:44:22;1.07;;;0.97;;
9436;SDS011;4757;59.334;18.034;2023-03-16T04:46:51;4.20;;;1.00;;
9436;SDS011;4757;59.334;18.034;2023-03-16T04:49:18;7.40;;;1.20;;
9436;SDS011;4757;59.334;18.034;2023-03-16T04:51:45;2.67;;;1.00;;
9436;SDS011;4757;59.334;18.034;2023-03-16T04:54:12;1.20;;;1.03;;
9436;SDS011;4757;59.334;18.034;2023-03-16T04:56:39;3.70;;;1.13;;
9436;SDS011;4757;59.334;18.034;2023-03-16T04:59:07;0.70;;;0.70;;
9436;SDS011;4757;59.334;18.034;2023-03-16T05:01:34;1.93;;;1.03;;
9436;SDS011;4757;59.334;18.034;2023-03-16T05:04:01;1.27;;;1.10;;
9436;SDS011;4757;59.334;18.034;2023-03-16T05:06:28;1.10;;;1.00;;
9436;SDS011;4757;59.334;18.034;2023-03-16T05:08:57;1.23;;;0.90;;
9436;SDS011;4757;59.334;18.034;2023-03-16T05:11:26;3.67;;;0.87;;
9436;SDS011;4757;59.334;18.034;2023-03-16T05:13:53;1.87;;;1.37;;
9436;SDS011;4757;59.334;18.034;2023-03-16T05:16:20;1.00;;;0.93;;
9436;SDS011;4757;59.334;18.034;2023-03-16T05:18:48;3.97;;;1.20;;
9436;SDS011;4757;59.334;18.034;2023-03-16T05:21:15;5.47;;;1.27;;
9436;SDS011;4757;59.334;18.034;2023-03-16T05:23:42;1.70;;;1.10;;
9436;SDS011;4757;59.334;18.034;2023-03-16T05:26:09;2.30;;;1.13;;
9436;SDS011;4757;59.334;18.034;2023-03-16T05:28:38;2.07;;;1.40;;
9436;SDS011;4757;59.334;18.034;2023-03-16T05:31:05;1.30;;;1.10;;
9436;SDS011;4757;59.334;18.034;2023-03-16T05:33:32;7.47;;;1.40;;
9436;SDS011;4757;59.334;18.034;2023-03-16T05:36:00;2.13;;;1.53;;
9436;SDS011;4757;59.334;18.034;2023-03-16T05:38:28;2.77;;;1.00;;
9436;SDS011;4757;59.334;18.034;2023-03-16T05:40:57;2.57;;;1.90;;
9436;SDS011;4757;59.334;18.034;2023-03-16T05:43:30;3.00;;;1.70;;
9436;SDS011;4757;59.334;18.034;2023-03-16T05:45:57;2.10;;;1.20;;
9436;SDS011;4757;59.334;18.034;2023-03-16T05:48:25;3.57;;;1.03;;
9436;SDS011;4757;59.334;18.034;2023-03-16T05:50:52;1.97;;;1.10;;
9436;SDS011;4757;59.334;18.034;2023-03-16T05:53:20;1.13;;;1.00;;
9436;SDS011;4757;59.334;18.034;2023-03-16T05:55:54;6.03;;;1.20;;
9436;SDS011;4757;59.334;18.034;2023-03-16T05:58:21;3.93;;;1.40;;
9436;SDS011;4757;59.334;18.034;2023-03-16T06:00:48;2.90;;;1.53;;
9436;SDS011;4757;59.334;18.034;2023-03-16T06:03:18;3.30;;;1.40;;
9436;SDS011;4757;59.334;18.034;2023-03-16T06:05:45;5.83;;;1.20;;
9436;SDS011;4757;59.334;18.034;2023-03-16T06:08:12;6.70;;;1.47;;
9436;SDS011;4757;59.334;18.034;2023-03-16T06:10:41;1.43;;;1.13;;
9436;SDS011;4757;59.334;18.034;2023-03-16T06:13:08;5.70;;;1.30;;
9436;SDS011;4757;59.334;18.034;2023-03-16T06:15:35;3.27;;;1.40;;
9436;SDS011;4757;59.334;18.034;2023-03-16T06:18:02;2.47;;;1.47;;
9436;SDS011;4757;59.334;18.034;2023-03-16T06:20:29;4.47;;;1.90;;
9436;SDS011;4757;59.334;18.034;2023-03-16T06:22:57;6.10;;;1.60;;
9436;SDS011;4757;59.334;18.034;2023-03-16T06:25:24;4.80;;;2.13;;
9436;SDS011;4757;59.334;18.034;2023-03-16T06:27:51;9.13;;;1.80;;
9436;SDS011;4757;59.334;18.034;2023-03-16T06:30:18;9.87;;;1.50;;
9436;SDS011;4757;59.334;18.034;2023-03-16T06:32:45;4.93;;;1.20;;
9436;SDS011;4757;59.334;18.034;2023-03-16T06:35:13;6.53;;;1.60;;
9436;SDS011;4757;59.334;18.034;2023-03-16T06:37:40;2.53;;;1.17;;
9436;SDS011;4757;59.334;18.034;2023-03-16T06:40:08;11.90;;;2.33;;
9436;SDS011;4757;59.334;18.034;2023-03-16T06:42:35;9.27;;;2.40;;
9436;SDS011;4757;59.334;18.034;2023-03-16T06:45:02;3.33;;;1.37;;
9436;SDS011;4757;59.334;18.034;2023-03-16T06:47:30;6.63;;;1.90;;
9436;SDS011;4757;59.334;18.034;2023-03-16T06:49:58;4.83;;;1.37;;
9436;SDS011;4757;59.334;18.034;2023-03-16T06:52:26;6.80;;;2.47;;
9436;SDS011;4757;59.334;18.034;2023-03-16T06:54:53;6.43;;;1.60;;
9436;SDS011;4757;59.334;18.034;2023-03-16T06:57:20;8.67;;;1.87;;
9436;SDS011;4757;59.334;18.034;2023-03-16T06:59:47;18.90;;;2.20;;
9436;SDS011;4757;59.334;18.034;2023-03-16T07:02:15;15.67;;;2.10;;
9436;SDS011;4757;59.334;18.034;2023-03-16T07:04:42;30.93;;;2.90;;
9436;SDS011;4757;59.334;18.034;2023-03-16T07:07:09;5.53;;;2.20;;
9436;SDS011;4757;59.334;18.034;2023-03-16T07:09:37;4.77;;;2.00;;
9436;SDS011;4757;59.334;18.034;2023-03-16T07:12:07;5.73;;;1.70;;
9436;SDS011;4757;59.334;18.034;2023-03-16T07:14:36;8.00;;;1.63;;
9436;SDS011;4757;59.334;18.034;2023-03-16T07:17:03;3.67;;;1.77;;
9436;SDS011;4757;59.334;18.034;2023-03-16T07:19:31;2.70;;;1.50;;
9436;SDS011;4757;59.334;18.034;2023-03-16T07:21:58;6.70;;;2.30;;
9436;SDS011;4757;59.334;18.034;2023-03-16T07:24:28;9.83;;;2.03;;
9436;SDS011;4757;59.334;18.034;2023-03-16T07:26:58;15.23;;;2.37;;
9436;SDS011;4757;59.334;18.034;2023-03-16T07:29:25;19.07;;;2.20;;
9436;SDS011;4757;59.334;18.034;2023-03-16T07:31:52;10.43;;;2.43;;
9436;SDS011;4757;59.334;18.034;2023-03-16T07:34:20;10.93;;;3.30;;
9436;SDS011;4757;59.334;18.034;2023-03-16T07:36:47;6.87;;;2.57;;
9436;SDS011;4757;59.334;18.034;2023-03-16T07:39:15;12.87;;;2.00;;
9436;SDS011;4757;59.334;18.034;2023-03-16T07:41:43;6.53;;;1.90;;
9436;SDS011;4757;59.334;18.034;2023-03-16T07:44:10;13.97;;;2.27;;
9436;SDS011;4757;59.334;18.034;2023-03-16T07:46:38;10.87;;;2.60;;
9436;SDS011;4757;59.334;18.034;2023-03-16T07:49:08;6.07;;;1.93;;
9436;SDS011;4757;59.334;18.034;2023-03-16T07:51:36;12.47;;;2.60;;
9436;SDS011;4757;59.334;18.034;2023-03-16T07:54:03;5.43;;;2.07;;
9436;SDS011;4757;59.334;18.034;2023-03-16T07:56:30;38.37;;;3.47;;
9436;SDS011;4757;59.334;18.034;2023-03-16T07:59:13;7.53;;;2.53;;
9436;SDS011;4757;59.334;18.034;2023-03-16T08:01:41;20.50;;;2.87;;
9436;SDS011;4757;59.334;18.034;2023-03-16T08:04:08;8.43;;;3.20;;
9436;SDS011;4757;59.334;18.034;2023-03-16T08:06:37;15.67;;;3.30;;
9436;SDS011;4757;59.334;18.034;2023-03-16T08:09:05;6.43;;;2.27;;
9436;SDS011;4757;59.334;18.034;2023-03-16T08:11:34;13.27;;;2.50;;
9436;SDS011;4757;59.334;18.034;2023-03-16T08:14:01;26.33;;;4.87;;
9436;SDS011;4757;59.334;18.034;2023-03-16T08:16:29;13.10;;;2.97;;
9436;SDS011;4757;59.334;18.034;2023-03-16T08:18:57;14.53;;;3.37;;
9436;SDS011;4757;59.334;18.034;2023-03-16T08:21:25;28.03;;;4.93;;
9436;SDS011;4757;59.334;18.034;2023-03-16T08:23:53;18.07;;;4.20;;
9436;SDS011;4757;59.334;18.034;2023-03-16T08:26:21;7.57;;;1.80;;
9436;SDS011;4757;59.334;18.034;2023-03-16T08:28:49;10.23;;;2.50;;
9436;SDS011;4757;59.334;18.034;2023-03-16T08:31:21;21.00;;;3.63;;
9436;SDS011;4757;59.334;18.034;2023-03-16T08:33:50;11.90;;;2.20;;
9436;SDS011;4757;59.334;18.034;2023-03-16T08:36:18;11.63;;;2.57;;
9436;SDS011;4757;59.334;18.034;2023-03-16T08:38:46;15.00;;;2.23;;
9436;SDS011;4757;59.334;18.034;2023-03-16T08:41:31;15.80;;;2.63;;
9436;SDS011;4757;59.334;18.034;2023-03-16T08:43:58;9.13;;;2.10;;
9436;SDS011;4757;59.334;18.034;2023-03-16T08:46:26;14.07;;;2.77;;
9436;SDS011;4757;59.334;18.034;2023-03-16T08:48:53;20.50;;;4.20;;
9436;SDS011;4757;59.334;18.034;2023-03-16T08:51:23;12.63;;;2.13;;
9436;SDS011;4757;59.334;18.034;2023-03-16T08:53:50;24.40;;;3.83;;
9436;SDS011;4757;59.334;18.034;2023-03-16T08:56:18;16.30;;;3.07;;
9436;SDS011;4757;59.334;18.034;2023-03-16T08:58:45;16.20;;;2.43;;
9436;SDS011;4757;59.334;18.034;2023-03-16T09:01:15;32.00;;;3.63;;
9436;SDS011;4757;59.334;18.034;2023-03-16T09:03:44;10.50;;;2.23;;
9436;SDS011;4757;59.334;18.034;2023-03-16T09:06:12;13.13;;;2.60;;
9436;SDS011;4757;59.334;18.034;2023-03-16T09:08:41;10.47;;;1.93;;
9436;SDS011;4757;59.334;18.034;2023-03-16T09:11:27;8.67;;;1.93;;
9436;SDS011;4757;59.334;18.034;2023-03-16T09:13:56;10.73;;;1.87;;
9436;SDS011;4757;59.334;18.034;2023-03-16T09:16:23;8.93;;;2.37;;
9436;SDS011;4757;59.334;18.034;2023-03-16T09:18:57;14.47;;;2.47;;
9436;SDS011;4757;59.334;18.034;2023-03-16T09:21:24;9.87;;;3.20;;
9436;SDS011;4757;59.334;18.034;2023-03-16T09:24:04;9.50;;;2.00;;
9436;SDS011;4757;59.334;18.034;2023-03-16T09:26:34;6.40;;;2.90;;
9436;SDS011;4757;59.334;18.034;2023-03-16T09:29:02;15.80;;;2.63;;
9436;SDS011;4757;59.334;18.034;2023-03-16T09:31:33;5.03;;;2.20;;
9436;SDS011;4757;59.334;18.034;2023-03-16T09:34:01;10.23;;;2.60;;
9436;SDS011;4757;59.334;18.034;2023-03-16T09:36:29;10.57;;;2.43;;
9436;SDS011;4757;59.334;18.034;2023-03-16T09:38:58;16.00;;;2.70;;
9436;SDS011;4757;59.334;18.034;2023-03-16T09:41:44;14.13;;;2.60;;
9436;SDS011;4757;59.334;18.034;2023-03-16T09:47:28;8.87;;;2.97;;
9436;SDS011;4757;59.334;18.034;2023-03-16T09:50:00;5.67;;;1.97;;
9436;SDS011;4757;59.334;18.034;2023-03-16T09:55:27;7.77;;;1.83;;
9436;SDS011;4757;59.334;18.034;2023-03-16T09:58:00;9.57;;;2.57;;
9436;SDS011;4757;59.334;18.034;2023-03-16T10:00:37;23.37;;;5.10;;
9436;SDS011;4757;59.334;18.034;2023-03-16T10:06:33;28.97;;;5.03;;
9436;SDS011;4757;59.334;18.034;2023-03-16T10:09:16;10.50;;;2.53;;
9436;SDS011;4757;59.334;18.034;2023-03-16T10:12:00;12.43;;;3.10;;
9436;SDS011;4757;59.334;18.034;2023-03-16T10:14:36;16.33;;;2.80;;
9436;SDS011;4757;59.334;18.034;2023-03-16T10:17:45;8.50;;;2.77;;
9436;SDS011;4757;59.334;18.034;2023-03-16T10:20:21;10.27;;;2.63;;
9436;SDS011;4757;59.334;18.034;2023-03-16T10:22:50;23.93;;;2.97;;
9436;SDS011;4757;59.334;18.034;2023-03-16T10:25:45;10.13;;;3.00;;
9436;SDS011;4757;59.334;18.034;2023-03-16T10:28:35;7.47;;;2.17;;
9436;SDS011;4757;59.334;18.034;2023-03-16T10:31:03;21.57;;;4.37;;
9436;SDS011;4757;59.334;18.034;2023-03-16T10:33:31;24.03;;;4.90;;
9436;SDS011;4757;59.334;18.034;2023-03-16T10:38:51;4.53;;;2.20;;
9436;SDS011;4757;59.334;18.034;2023-03-16T10:41:42;7.70;;;2.67;;
9436;SDS011;4757;59.334;18.034;2023-03-16T10:44:16;27.60;;;4.00;;
9436;SDS011;4757;59.334;18.034;2023-03-16T10:46:49;13.73;;;3.80;;
9436;SDS011;4757;59.334;18.034;2023-03-16T10:49:35;8.47;;;2.53;;
9436;SDS011;4757;59.334;18.034;2023-03-16T10:52:22;13.00;;;2.17;;
9436;SDS011;4757;59.334;18.034;2023-03-16T10:54:57;3.63;;;2.13;;
9436;SDS011;4757;59.334;18.034;2023-03-16T11:00:03;9.37;;;2.80;;
9436;SDS011;4757;59.334;18.034;2023-03-16T11:02:35;8.00;;;2.93;;
9436;SDS011;4757;59.334;18.034;2023-03-16T11:10:43;6.57;;;3.00;;
9436;SDS011;4757;59.334;18.034;2023-03-16T11:13:21;7.67;;;2.13;;
9436;SDS011;4757;59.334;18.034;2023-03-16T11:16:02;5.07;;;2.10;;
9436;SDS011;4757;59.334;18.034;2023-03-16T11:18:47;7.93;;;2.10;;
9436;SDS011;4757;59.334;18.034;2023-03-16T11:24:59;9.43;;;2.40;;
9436;SDS011;4757;59.334;18.034;2023-03-16T11:33:01;7.27;;;2.83;;
9436;SDS011;4757;59.334;18.034;2023-03-16T11:38:25;4.27;;;2.40;;
9436;SDS011;4757;59.334;18.034;2023-03-16T11:41:16;11.40;;;3.03;;
9436;SDS011;4757;59.334;18.034;2023-03-16T11:43:55;23.90;;;4.13;;
9436;SDS011;4757;59.334;18.034;2023-03-16T11:52:02;10.37;;;2.80;;
9436;SDS011;4757;59.334;18.034;2023-03-16T11:54:50;15.83;;;3.20;;
9436;SDS011;4757;59.334;18.034;2023-03-16T12:09:03;10.53;;;2.17;;
9436;SDS011;4757;59.334;18.034;2023-03-16T12:17:51;7.07;;;2.13;;
9436;SDS011;4757;59.334;18.034;2023-03-16T12:20:30;10.57;;;2.80;;
9436;SDS011;4757;59.334;18.034;2023-03-16T12:23:04;7.23;;;2.53;;
9436;SDS011;4757;59.334;18.034;2023-03-16T12:25:41;10.57;;;2.80;;
9436;SDS011;4757;59.334;18.034;2023-03-16T12:28:15;8.43;;;2.47;;
9436;SDS011;4757;59.334;18.034;2023-03-16T12:30:54;23.03;;;4.07;;
9436;SDS011;4757;59.334;18.034;2023-03-16T12:33:57;7.27;;;2.03;;
9436;SDS011;4757;59.334;18.034;2023-03-16T12:42:46;13.97;;;3.40;;
9436;SDS011;4757;59.334;18.034;2023-03-16T12:48:34;6.70;;;2.17;;
9436;SDS011;4757;59.334;18.034;2023-03-16T12:51:11;7.70;;;2.30;;
9436;SDS011;4757;59.334;18.034;2023-03-16T12:56:20;16.03;;;3.27;;
9436;SDS011;4757;59.334;18.034;2023-03-16T12:58:57;7.37;;;3.73;;
9436;SDS011;4757;59.334;18.034;2023-03-16T13:01:30;12.73;;;3.03;;
9436;SDS011;4757;59.334;18.034;2023-03-16T13:06:46;13.70;;;2.60;;
9436;SDS011;4757;59.334;18.034;2023-03-16T13:09:21;7.90;;;2.27;;
9436;SDS011;4757;59.334;18.034;2023-03-16T13:11:53;8.67;;;2.20;;
9436;SDS011;4757;59.334;18.034;2023-03-16T13:17:05;4.47;;;2.03;;
9436;SDS011;4757;59.334;18.034;2023-03-16T13:19:42;12.03;;;3.07;;
9436;SDS011;4757;59.334;18.034;2023-03-16T13:25:14;8.73;;;2.30;;
9436;SDS011;4757;59.334;18.034;2023-03-16T13:27:49;10.47;;;2.80;;
9436;SDS011;4757;59.334;18.034;2023-03-16T13:32:52;5.90;;;2.13;;
9436;SDS011;4757;59.334;18.034;2023-03-16T13:35:25;15.20;;;2.80;;
9436;SDS011;4757;59.334;18.034;2023-03-16T13:38:04;17.07;;;5.43;;
9436;SDS011;4757;59.334;18.034;2023-03-16T13:40:47;5.13;;;1.80;;
9436;SDS011;4757;59.334;18.034;2023-03-16T13:43:16;11.83;;;2.47;;
9436;SDS011;4757;59.334;18.034;2023-03-16T13:45:47;18.77;;;3.27;;
9436;SDS011;4757;59.334;18.034;2023-03-16T13:48:17;20.53;;;3.03;;
9436;SDS011;4757;59.334;18.034;2023-03-16T13:50:51;12.83;;;2.27;;
9436;SDS011;4757;59.334;18.034;2023-03-16T13:53:28;5.43;;;1.90;;
9436;SDS011;4757;59.334;18.034;2023-03-16T13:55:58;10.97;;;2.37;;
9436;SDS011;4757;59.334;18.034;2023-03-16T13:58:28;5.07;;;2.00;;
9436;SDS011;4757;59.334;18.034;2023-03-16T14:01:10;8.60;;;2.88;;
9436;SDS011;4757;59.334;18.034;2023-03-16T14:03:59;11.77;;;2.37;;
9436;SDS011;4757;59.334;18.034;2023-03-16T14:06:37;10.03;;;2.63;;
9436;SDS011;4757;59.334;18.034;2023-03-16T14:09:19;10.27;;;2.33;;
9436;SDS011;4757;59.334;18.034;2023-03-16T14:11:48;9.90;;;2.67;;
9436;SDS011;4757;59.334;18.034;2023-03-16T14:14:22;18.93;;;2.43;;
9436;SDS011;4757;59.334;18.034;2023-03-16T14:16:52;21.80;;;2.77;;
9436;SDS011;4757;59.334;18.034;2023-03-16T14:19:27;18.80;;;3.47;;
9436;SDS011;4757;59.334;18.034;2023-03-16T14:22:02;4.70;;;1.57;;
9436;SDS011;4757;59.334;18.034;2023-03-16T14:24:34;10.00;;;2.30;;
9436;SDS011;4757;59.334;18.034;2023-03-16T14:27:25;12.03;;;2.57;;
9436;SDS011;4757;59.334;18.034;2023-03-16T14:30:00;5.40;;;2.07;;
9436;SDS011;4757;59.334;18.034;2023-03-16T14:33:44;21.37;;;4.00;;
9436;SDS011;4757;59.334;18.034;2023-03-16T14:35:58;8.23;;;2.50;;
9436;SDS011;4757;59.334;18.034;2023-03-16T14:38:34;17.63;;;2.43;;
9436;SDS011;4757;59.334;18.034;2023-03-16T14:43:31;8.13;;;2.23;;
9436;SDS011;4757;59.334;18.034;2023-03-16T14:46:04;30.53;;;4.83;;
9436;SDS011;4757;59.334;18.034;2023-03-16T14:48:34;7.97;;;2.47;;
9436;SDS011;4757;59.334;18.034;2023-03-16T14:51:01;18.17;;;2.60;;
9436;SDS011;4757;59.334;18.034;2023-03-16T14:53:29;12.47;;;2.13;;
9436;SDS011;4757;59.334;18.034;2023-03-16T14:55:57;10.37;;;1.93;;
9436;SDS011;4757;59.334;18.034;2023-03-16T14:58:24;9.53;;;2.87;;
9436;SDS011;4757;59.334;18.034;2023-03-16T15:00:52;6.17;;;3.00;;
9436;SDS011;4757;59.334;18.034;2023-03-16T15:03:21;6.17;;;2.20;;
9436;SDS011;4757;59.334;18.034;2023-03-16T15:05:56;18.50;;;3.30;;
9436;SDS011;4757;59.334;18.034;2023-03-16T15:08:25;11.50;;;2.30;;
9436;SDS011;4757;59.334;18.034;2023-03-16T15:10:59;6.27;;;1.90;;
9436;SDS011;4757;59.334;18.034;2023-03-16T15:13:31;13.27;;;2.77;;
9436;SDS011;4757;59.334;18.034;2023-03-16T15:16:23;18.97;;;2.83;;
9436;SDS011;4757;59.334;18.034;2023-03-16T15:18:50;23.90;;;2.80;;
9436;SDS011;4757;59.334;18.034;2023-03-16T15:21:21;33.73;;;4.47;;
9436;SDS011;4757;59.334;18.034;2023-03-16T15:23:55;7.60;;;2.20;;
9436;SDS011;4757;59.334;18.034;2023-03-16T15:26:25;8.30;;;2.50;;
9436;SDS011;4757;59.334;18.034;2023-03-16T15:28:54;27.90;;;3.33;;
9436;SDS011;4757;59.334;18.034;2023-03-16T15:31:23;7.17;;;1.97;;
9436;SDS011;4757;59.334;18.034;2023-03-16T15:33:50;7.17;;;1.83;;
9436;SDS011;4757;59.334;18.034;2023-03-16T15:36:18;9.20;;;2.23;;
9436;SDS011;4757;59.334;18.034;2023-03-16T15:38:48;13.07;;;2.57;;
9436;SDS011;4757;59.334;18.034;2023-03-16T15:41:17;11.43;;;2.10;;
9436;SDS011;4757;59.334;18.034;2023-03-16T15:43:44;7.87;;;2.10;;
9436;SDS011;4757;59.334;18.034;2023-03-16T15:46:18;9.37;;;2.63;;
9436;SDS011;4757;59.334;18.034;2023-03-16T15:48:49;8.63;;;2.47;;
9436;SDS011;4757;59.334;18.034;2023-03-16T15:51:20;7.13;;;2.00;;
9436;SDS011;4757;59.334;18.034;2023-03-16T15:53:59;24.07;;;3.70;;
9436;SDS011;4757;59.334;18.034;2023-03-16T15:56:30;4.70;;;1.57;;
9436;SDS011;4757;59.334;18.034;2023-03-16T15:59:18;8.00;;;1.70;;
9436;SDS011;4757;59.334;18.034;2023-03-16T16:01:47;8.93;;;1.50;;
9436;SDS011;4757;59.334;18.034;2023-03-16T16:04:16;7.77;;;1.80;;
9436;SDS011;4757;59.334;18.034;2023-03-16T16:06:45;26.00;;;4.13;;
9436;SDS011;4757;59.334;18.034;2023-03-16T16:09:14;11.70;;;2.40;;
9436;SDS011;4757;59.334;18.034;2023-03-16T16:11:43;32.80;;;4.60;;
9436;SDS011;4757;59.334;18.034;2023-03-16T16:14:19;63.03;;;6.53;;
9436;SDS011;4757;59.334;18.034;2023-03-16T16:16:51;14.73;;;2.90;;
9436;SDS011;4757;59.334;18.034;2023-03-16T16:19:21;20.20;;;2.60;;
9436;SDS011;4757;59.334;18.034;2023-03-16T16:22:27;11.93;;;3.23;;
9436;SDS011;4757;59.334;18.034;2023-03-16T16:29:25;9.37;;;2.20;;
9436;SDS011;4757;59.334;18.034;2023-03-16T16:32:34;8.23;;;2.20;;
9436;SDS011;4757;59.334;18.034;2023-03-16T16:35:18;11.93;;;2.47;;
9436;SDS011;4757;59.334;18.034;2023-03-16T16:38:09;14.60;;;2.60;;
9436;SDS011;4757;59.334;18.034;2023-03-16T16:40:47;10.47;;;2.50;;
9436;SDS011;4757;59.334;18.034;2023-03-16T16:43:40;5.20;;;2.00;;
9436;SDS011;4757;59.334;18.034;2023-03-16T16:46:49;8.13;;;1.90;;
9436;SDS011;4757;59.334;18.034;2023-03-16T16:49:46;10.83;;;2.27;;
9436;SDS011;4757;59.334;18.034;2023-03-16T16:52:26;6.27;;;2.47;;
9436;SDS011;4757;59.334;18.034;2023-03-16T17:09:50;17.73;;;4.90;;
9436;SDS011;4757;59.334;18.034;2023-03-16T17:13:08;13.77;;;4.00;;
9436;SDS011;4757;59.334;18.034;2023-03-16T17:16:25;23.63;;;3.60;;
9436;SDS011;4757;59.334;18.034;2023-03-16T17:19:48;15.20;;;2.67;;